Time;durP1;ratioP1;P1;durP2;ratioP2;P2;SDS_P1;SDS_P2;PMS_P1;PMS_P2;Temp;Humidity;BMP_temperature;BMP_pressure;BME280_temperature;BME280_humidity;BME280_pressure;Samples;Min_cycle;Max_cycle;Signal;HPM_P1;HPM_P2
2021/08/02 00:01:35;;;;;;;12.40;8.18;;;;;;;22.04;100.00;99878.84;1650264;85;20958;-60
2021/08/02 00:04:06;;;;;;;9.80;7.50;;;;;;;22.02;100.00;99874.34;1681390;84;21321;-60
2021/08/02 00:06:49;;;;;;;10.38;7.92;;;;;;;21.99;100.00;99874.08;1687582;84;21023;-61
2021/08/02 00:09:18;;;;;;;10.97;8.40;;;;;;;21.94;100.00;99877.55;1675485;84;21164;-60
2021/08/02 00:12:06;;;;;;;9.58;8.58;;;;;;;21.90;100.00;99874.38;1687577;84;21004;-60
2021/08/02 00:14:34;;;;;;;9.13;8.23;;;;;;;21.86;100.00;99872.25;1687873;84;21153;-61
2021/08/02 00:17:01;;;;;;;10.20;8.53;;;;;;;21.83;100.00;99875.96;1688077;84;21041;-60
2021/08/02 00:19:29;;;;;;;13.50;9.70;;;;;;;21.80;100.00;99877.81;1686393;84;20932;-61
2021/08/02 00:21:56;;;;;;;14.40;11.03;;;;;;;21.77;100.00;99877.81;1687646;84;21171;-60
2021/08/02 00:24:24;;;;;;;14.40;12.33;;;;;;;21.71;100.00;99878.09;1687738;84;21080;-61
2021/08/02 00:26:51;;;;;;;13.43;9.40;;;;;;;21.69;100.00;99879.67;1688205;84;21038;-61
2021/08/02 00:29:21;;;;;;;12.97;8.53;;;;;;;21.68;100.00;99879.95;1686878;84;20960;-61
2021/08/02 00:31:48;;;;;;;9.33;8.30;;;;;;;21.64;100.00;99876.23;1688016;84;20929;-61
2021/08/02 00:34:16;;;;;;;11.47;8.63;;;;;;;21.59;100.00;99873.85;1687054;84;20905;-61
2021/08/02 00:36:51;;;;;;;10.77;8.07;;;;;;;21.65;100.00;99869.86;1688120;84;21273;-61
2021/08/02 00:39:57;;;;;;;9.90;7.97;;;;;;;21.58;100.00;99869.58;1687578;84;21083;-61
2021/08/02 00:43:21;;;;;;;8.63;7.03;;;;;;;21.57;100.00;99869.86;1688154;84;21001;-61
2021/08/02 00:45:48;;;;;;;8.93;8.03;;;;;;;21.52;100.00;99858.73;1688171;84;21413;-61
2021/08/02 00:48:21;;;;;;;11.43;10.07;;;;;;;21.51;100.00;99857.11;1688058;83;21098;-60
2021/08/02 00:50:50;;;;;;;11.10;8.57;;;;;;;21.52;100.00;99855.28;1686103;83;21083;-60
2021/08/02 00:53:20;;;;;;;10.53;9.03;;;;;;;21.51;100.00;99849.69;1688528;83;20968;-61
2021/08/02 00:55:56;;;;;;;12.53;9.03;;;;;;;21.51;100.00;99859.77;1688226;84;21459;-60
2021/08/02 00:58:25;;;;;;;13.50;9.90;;;;;;;21.53;100.00;99858.19;1688275;84;21011;-61
2021/08/02 01:00:52;;;;;;;10.23;9.23;;;;;;;21.53;100.00;99866.94;1687277;84;21152;-61
2021/08/02 01:03:20;;;;;;;11.37;10.20;;;;;;;21.51;100.00;99870.38;1686667;84;21100;-61
2021/08/02 01:05:50;;;;;;;13.40;11.97;;;;;;;21.49;100.00;99871.19;1688133;84;21020;-60
2021/08/02 01:08:28;;;;;;;14.30;11.80;;;;;;;21.46;100.00;99870.92;1687838;84;20968;-60
2021/08/02 01:10:59;;;;;;;15.37;11.83;;;;;;;21.41;100.00;99875.69;1687687;84;21564;-61
2021/08/02 01:13:29;;;;;;;15.17;11.77;;;;;;;21.37;100.00;99874.62;1688173;84;20992;-61
2021/08/02 01:16:01;;;;;;;16.20;11.77;;;;;;;21.32;100.00;99875.89;1687506;84;37626;-60
2021/08/02 01:18:31;;;;;;;16.70;12.33;;;;;;;21.27;100.00;99879.34;1643258;85;21044;-61
2021/08/02 01:21:07;;;;;;;14.90;12.00;;;;;;;21.26;100.00;99876.44;1628768;87;21046;-61
2021/08/02 01:23:36;;;;;;;24.17;13.00;;;;;;;21.20;100.00;99872.70;1628194;87;20962;-60
2021/08/02 01:26:44;;;;;;;14.97;11.17;;;;;;;21.15;100.00;99874.82;1636551;87;21122;-59
2021/08/02 01:30:13;;;;;;;12.27;10.87;;;;;;;21.10;100.00;99876.94;1635119;87;21167;-59
2021/08/02 01:32:41;;;;;;;16.43;10.80;;;;;;;21.03;100.00;99877.71;1630367;87;21001;-59
2021/08/02 01:35:09;;;;;;;13.17;10.37;;;;;;;20.97;100.00;99880.06;1625105;88;22207;-60
2021/08/02 01:37:37;;;;;;;12.60;10.90;;;;;;;20.95;100.00;99884.02;1638362;85;20946;-59
2021/08/02 01:40:07;;;;;;;13.50;10.97;;;;;;;20.89;100.00;99883.23;1617030;88;21139;-60
2021/08/02 01:42:38;;;;;;;15.37;10.53;;;;;;;20.87;100.00;99885.33;1636791;85;21053;-60
2021/08/02 01:45:08;;;;;;;16.23;10.30;;;;;;;20.82;100.00;99878.70;1592392;88;21111;-60
2021/08/02 01:48:03;;;;;;;13.60;9.67;;;;;;;20.80;100.00;99886.91;1625115;87;21034;-60
2021/08/02 01:50:49;;;;;;;17.63;10.40;;;;;;;20.76;100.00;99886.34;1629116;86;21104;-61
2021/08/02 01:53:40;;;;;;;15.50;11.13;;;;;;;20.72;100.00;99894.54;1636017;86;21217;-60
2021/08/02 01:56:13;;;;;;;15.50;10.98;;;;;;;20.68;100.00;99892.14;1625104;88;21531;-60
2021/08/02 01:58:45;;;;;;;17.23;10.57;;;;;;;20.64;100.00;99897.95;1643403;85;20965;-60
2021/08/02 02:01:26;;;;;;;14.43;10.00;;;;;;;20.60;100.00;99901.37;1587320;88;21671;-60
2021/08/02 02:03:53;;;;;;;19.20;10.97;;;;;;;20.61;100.00;99902.99;1644059;85;21134;-61
2021/08/02 02:06:22;;;;;;;13.67;10.97;;;;;;;20.63;100.00;99907.48;1677929;84;21128;-61
2021/08/02 02:08:58;;;;;;;13.53;9.90;;;;;;;20.65;100.00;99908.04;1669945;84;21414;-59
2021/08/02 02:11:29;;;;;;;12.47;10.33;;;;;;;20.65;100.00;99912.02;1678736;83;21121;-61
2021/08/02 02:14:03;;;;;;;13.07;10.97;;;;;;;20.69;100.00;99912.30;1679033;83;21064;-60
2021/08/02 02:16:31;;;;;;;16.17;12.33;;;;;;;20.73;100.00;99904.10;1596334;88;21060;-61
2021/08/02 02:19:04;;;;;;;15.93;11.60;;;;;;;20.81;100.00;99896.98;1661222;85;21305;-61
2021/08/02 02:21:32;;;;;;;15.80;10.78;;;;;;;20.84;100.00;99910.50;1678231;84;21100;-61
2021/08/02 02:24:00;;;;;;;15.17;11.17;;;;;;;20.90;100.00;99905.48;1678516;84;21064;-61
2021/08/02 02:26:29;;;;;;;17.37;11.80;;;;;;;20.96;100.00;99910.81;1677255;85;21015;-59
2021/08/02 02:28:56;;;;;;;13.77;10.60;;;;;;;21.01;100.00;99918.23;1676311;85;21116;-61
2021/08/02 02:31:24;;;;;;;14.07;11.13;;;;;;;21.00;100.00;99913.20;1676141;85;21099;-60
2021/08/02 02:33:52;;;;;;;16.13;10.17;;;;;;;21.02;100.00;99914.52;1678214;85;21005;-60
2021/08/02 02:36:20;;;;;;;22.33;11.40;;;;;;;21.04;100.00;99917.72;1678030;85;21504;-60
2021/08/02 02:38:50;;;;;;;19.73;12.20;;;;;;;21.10;100.00;99913.22;1677728;85;21108;-61
2021/08/02 02:41:20;;;;;;;16.17;13.10;;;;;;;21.18;100.00;99913.27;1678231;85;21590;-61
2021/08/02 02:43:49;;;;;;;17.73;15.50;;;;;;;21.37;100.00;99918.38;1678362;85;21200;-61
2021/08/02 02:46:17;;;;;;;23.10;17.90;;;;;;;21.46;100.00;99910.69;1673925;83;21119;-60
2021/08/02 02:48:45;;;;;;;17.57;15.70;;;;;;;21.46;100.00;99915.46;1677893;85;21028;-61
2021/08/02 02:51:12;;;;;;;21.47;17.53;;;;;;;21.51;100.00;99915.45;1676478;84;21769;-62
2021/08/02 02:53:41;;;;;;;19.33;15.77;;;;;;;21.59;100.00;99920.27;1678421;85;21068;-62
2021/08/02 02:56:09;;;;;;;29.47;26.63;;;;;;;21.69;100.00;99919.46;1677822;85;21828;-61
2021/08/02 02:58:37;;;;;;;27.20;23.77;;;;;;;21.80;100.00;99916.29;1678206;85;21113;-62
2021/08/02 03:01:05;;;;;;;27.93;23.47;;;;;;;21.93;100.00;99913.62;1664597;80;21010;-63
2021/08/02 03:03:34;;;;;;;27.77;24.97;;;;;;;22.04;100.00;99914.67;1671864;84;21022;-62
2021/08/02 03:06:01;;;;;;;27.63;24.77;;;;;;;22.16;100.00;99909.64;1647541;87;20974;-61
2021/08/02 03:08:28;;;;;;;26.10;23.30;;;;;;;22.27;100.00;99912.55;1645786;87;22471;-61
2021/08/02 03:10:55;;;;;;;28.33;24.17;;;;;;;22.42;100.00;99913.84;1647230;85;21006;-61
2021/08/02 03:13:22;;;;;;;23.60;20.23;;;;;;;22.72;100.00;99912.16;1647252;87;21018;-62
2021/08/02 03:15:49;;;;;;;19.83;17.93;;;;;;;23.21;100.00;99908.23;1647464;85;21057;-62
2021/08/02 03:18:16;;;;;;;19.43;17.47;;;;;;;23.87;100.00;99908.87;1646914;86;21545;-61
2021/08/02 03:20:42;;;;;;;17.37;15.60;;;;;;;24.67;100.00;99904.34;1646233;87;21220;-61
2021/08/02 03:23:23;;;;;;;20.20;18.13;;;;;;;25.53;100.00;99898.91;1647239;87;22556;-62
2021/08/02 03:26:11;;;;;;;17.50;15.80;;;;;;;26.22;100.00;99901.79;1646568;85;21605;-62
2021/08/02 03:29:02;;;;;;;18.90;16.93;;;;;;;26.95;100.00;99894.73;1646672;87;22235;-62
2021/08/02 03:31:46;;;;;;;23.05;17.12;;;;;;;27.64;100.00;99889.94;1645919;86;20991;-62
2021/08/02 03:34:17;;;;;;;15.95;14.45;;;;;;;28.22;100.00;99895.69;1646480;86;21127;-61
2021/08/02 03:36:44;;;;;;;;;;;;;;;28.81;100.00;99889.50;1649483;86;20983;-61
2021/08/02 03:39:11;;;;;;;15.50;11.25;;;;;;;29.34;100.00;99887.09;1646606;87;20130;-60
2021/08/02 03:41:41;;;;;;;12.65;9.55;;;;;;;29.78;100.00;99892.44;1647277;87;21117;-60
2021/08/02 03:44:11;;;;;;;15.68;12.37;;;;;;;30.28;100.00;99891.81;1646570;87;20975;-60
2021/08/02 03:46:39;;;;;;;17.07;13.30;;;;;;;30.76;100.00;99894.09;1647203;86;21777;-60
2021/08/02 03:49:06;;;;;;;16.67;13.15;;;;;;;31.20;100.00;99884.33;1647127;86;21355;-62
2021/08/02 03:51:58;;;;;;;15.00;13.20;;;;;;;31.67;100.00;99890.79;1647100;85;21531;-62
2021/08/02 03:54:29;;;;;;;16.55;12.40;;;;;;;32.10;100.00;99886.86;1644346;86;21109;-60
2021/08/02 03:56:59;;;;;;;15.32;11.45;;;;;;;32.51;100.00;99888.56;1644499;85;21375;-62
2021/08/02 03:59:26;;;;;;;16.05;12.33;;;;;;;32.93;93.15;99885.55;1646985;87;21845;-60
2021/08/02 04:01:53;;;;;;;16.12;13.10;;;;;;;33.30;86.43;99884.08;1646522;85;21141;-61
2021/08/02 04:04:19;;;;;;;20.88;15.53;;;;;;;33.74;83.15;99881.40;1641638;86;21568;-60
2021/08/02 04:06:46;;;;;;;18.80;14.38;;;;;;;34.20;76.82;99877.70;1645477;86;21181;-62
2021/08/02 04:09:13;;;;;;;18.48;15.58;;;;;;;34.66;71.20;99877.98;1642793;87;21540;-63
2021/08/02 04:11:42;;;;;;;21.50;14.15;;;;;;;35.05;66.86;99873.41;1642984;86;21885;-61
2021/08/02 04:14:09;;;;;;;13.65;11.15;;;;;;;35.49;60.01;99871.69;1603792;87;21458;-63
2021/08/02 04:16:36;;;;;;;14.43;11.40;;;;;;;35.74;54.51;99875.66;1643054;86;20996;-63
2021/08/02 04:19:04;;;;;;;15.70;11.22;;;;;;;35.91;51.85;99882.50;1644123;86;21067;-61
2021/08/02 04:21:30;;;;;;;12.78;9.50;;;;;;;36.14;52.21;99883.08;1643516;86;21051;-61
2021/08/02 04:23:57;;;;;;;10.30;9.20;;;;;;;36.36;50.47;99881.47;1642367;85;21155;-61
2021/08/02 04:26:24;;;;;;;11.75;9.18;;;;;;;36.47;48.82;99879.14;1639652;85;20999;-62
2021/08/02 04:28:56;;;;;;;11.43;9.68;;;;;;;36.69;47.64;99886.22;1642020;86;20921;-61
2021/08/02 04:31:19;;;;;;;11.00;8.58;;;;;;;36.90;47.12;99882.42;1646079;86;21051;-62
2021/08/02 04:33:45;;;;;;;12.53;8.18;;;;;;;37.27;45.14;99884.39;1644859;86;20956;-61
2021/08/02 04:36:12;;;;;;;10.63;8.03;;;;;;;37.63;42.51;99882.84;1642791;86;21128;-61
2021/08/02 04:38:40;;;;;;;11.90;9.58;;;;;;;37.87;41.31;99873.89;1643747;86;21001;-61
2021/08/02 04:41:06;;;;;;;11.75;10.05;;;;;;;38.18;39.95;99873.36;1644998;86;21026;-61
2021/08/02 04:43:33;;;;;;;17.55;11.75;;;;;;;38.58;38.37;99866.23;1643591;86;20960;-61
2021/08/02 04:46:00;;;;;;;15.58;13.55;;;;;;;38.91;37.48;99863.09;1642982;86;21882;-61
2021/08/02 04:48:26;;;;;;;16.40;13.53;;;;;;;39.32;36.01;99869.03;1644566;86;21764;-61
2021/08/02 04:50:54;;;;;;;18.73;14.55;;;;;;;39.71;34.96;99872.42;1644207;86;21083;-61
2021/08/02 04:53:20;;;;;;;19.10;15.23;;;;;;;39.99;34.49;99877.66;1641757;86;21028;-62
2021/08/02 04:55:48;;;;;;;18.60;15.68;;;;;;;40.20;33.48;99874.16;1643955;86;21037;-61
2021/08/02 04:58:15;;;;;;;24.35;16.17;;;;;;;40.34;32.66;99871.37;1643907;86;20980;-61
2021/08/02 05:00:42;;;;;;;19.25;16.05;;;;;;;40.54;32.80;99870.35;1642270;86;21153;-62
2021/08/02 05:03:10;;;;;;;22.32;18.60;;;;;;;40.76;31.43;99867.72;1643758;85;21111;-61
2021/08/02 05:05:36;;;;;;;22.10;19.07;;;;;;;40.87;31.63;99866.91;1644193;86;20960;-62
2021/08/02 05:08:05;;;;;;;20.92;17.40;;;;;;;41.11;31.27;99867.40;1640798;86;21011;-61
2021/08/02 05:10:32;;;;;;;19.95;16.90;;;;;;;41.49;30.31;99862.09;1639640;86;21110;-61
2021/08/02 05:12:59;;;;;;;16.87;14.33;;;;;;;41.86;29.59;99857.88;1642043;87;21173;-61
2021/08/02 05:15:26;;;;;;;15.23;13.40;;;;;;;42.21;28.56;99854.78;1644406;86;21176;-62
2021/08/02 05:17:53;;;;;;;15.75;13.08;;;;;;;42.97;26.78;99849.19;1642842;86;20973;-62
2021/08/02 05:20:20;;;;;;;16.23;13.62;;;;;;;42.97;26.78;99849.19;1641928;86;20995;-62
2021/08/02 05:22:46;;;;;;;15.18;13.58;;;;;;;43.02;26.47;99852.83;1644332;86;21174;-61
2021/08/02 05:25:14;;;;;;;15.95;13.83;;;;;;;43.00;26.55;99850.52;1644754;86;21545;-62
2021/08/02 05:27:50;;;;;;;14.05;12.55;;;;;;;43.11;26.43;99848.98;1643884;86;21094;-61
2021/08/02 05:30:17;;;;;;;15.03;13.40;;;;;;;43.33;25.72;99845.92;1643158;86;21549;-62
2021/08/02 05:32:43;;;;;;;15.53;13.80;;;;;;;43.44;25.93;99847.30;1642318;86;22558;-61
2021/08/02 05:35:11;;;;;;;13.85;11.85;;;;;;;43.60;26.01;99850.02;1635965;86;21091;-61
2021/08/02 05:37:38;;;;;;;14.23;12.78;;;;;;;43.70;25.64;99847.09;1639006;86;21627;-61
2021/08/02 05:40:06;;;;;;;16.48;13.55;;;;;;;43.80;25.71;99843.98;1637502;86;21091;-62
2021/08/02 05:42:33;;;;;;;14.58;13.25;;;;;;;43.97;25.88;99847.62;1637947;86;21510;-62
2021/08/02 05:44:59;;;;;;;13.72;12.33;;;;;;;44.08;25.68;99842.70;1636847;86;21609;-61
2021/08/02 05:47:26;;;;;;;16.35;13.80;;;;;;;44.31;25.25;99841.88;1639039;86;21201;-62
2021/08/02 05:49:52;;;;;;;13.35;11.70;;;;;;;44.35;25.48;99845.94;1638972;86;21156;-62
2021/08/02 05:52:21;;;;;;;14.60;12.83;;;;;;;44.47;25.13;99841.16;1636605;87;20999;-61
2021/08/02 05:54:48;;;;;;;14.15;12.65;;;;;;;44.47;25.14;99839.78;1638390;86;21102;-61
2021/08/02 05:57:21;;;;;;;15.95;13.68;;;;;;;44.55;25.35;99837.66;1633687;87;21334;-61
2021/08/02 05:59:48;;;;;;;15.10;13.53;;;;;;;44.64;25.15;99837.27;1639480;86;21523;-61
2021/08/02 06:02:14;;;;;;;21.25;13.20;;;;;;;44.58;25.08;99836.81;1651471;83;21681;-61
2021/08/02 06:04:41;;;;;;;15.30;13.60;;;;;;;44.42;25.26;99838.92;1677198;84;20947;-61
2021/08/02 06:07:08;;;;;;;30.05;13.50;;;;;;;44.50;25.12;99836.80;1672097;85;21003;-61
2021/08/02 06:09:35;;;;;;;40.43;15.88;;;;;;;44.70;25.39;99835.41;1673763;85;21003;-61
2021/08/02 06:12:02;;;;;;;15.75;12.58;;;;;;;44.93;25.23;99834.50;1672250;84;21094;-62
2021/08/02 06:14:30;;;;;;;15.40;12.78;;;;;;;45.20;24.67;99832.33;1673760;84;20964;-61
2021/08/02 06:16:58;;;;;;;14.43;12.90;;;;;;;45.33;24.65;99836.53;1672708;84;21074;-61
2021/08/02 06:19:25;;;;;;;13.45;12.25;;;;;;;45.35;24.66;99829.39;1671995;85;21386;-61
2021/08/02 06:21:51;;;;;;;14.63;13.13;;;;;;;45.50;24.34;99832.59;1675692;84;21095;-61
2021/08/02 06:24:19;;;;;;;15.28;13.78;;;;;;;45.55;24.39;99829.31;1671357;84;21401;-61
2021/08/02 06:26:46;;;;;;;15.80;14.13;;;;;;;45.46;24.16;99829.13;1673803;85;21118;-61
2021/08/02 06:29:12;;;;;;;16.45;14.75;;;;;;;45.30;24.37;99823.63;1673531;84;21605;-61
2021/08/02 06:31:40;;;;;;;14.80;13.22;;;;;;;45.07;24.66;99818.47;1673567;84;21092;-61
2021/08/02 06:34:06;;;;;;;16.60;14.95;;;;;;;45.24;24.81;99818.48;1679463;85;21771;-61
2021/08/02 06:36:33;;;;;;;14.93;13.18;;;;;;;45.46;24.32;99823.63;1679794;85;21477;-60
2021/08/02 06:38:59;;;;;;;16.70;14.73;;;;;;;45.51;24.10;99824.50;1678900;84;21135;-61
2021/08/02 06:41:26;;;;;;;14.07;12.25;;;;;;;45.60;24.05;99820.52;1679826;84;21428;-60
2021/08/02 06:43:53;;;;;;;18.00;12.55;;;;;;;45.79;23.52;99818.06;1679182;84;21046;-61
2021/08/02 06:46:20;;;;;;;14.28;12.20;;;;;;;45.79;23.78;99817.45;1678807;84;21102;-61
2021/08/02 06:48:48;;;;;;;14.45;11.43;;;;;;;45.92;23.92;99803.78;1680163;84;20920;-61
2021/08/02 06:51:14;;;;;;;11.85;10.65;;;;;;;46.10;22.81;99800.50;1678393;85;21151;-63
2021/08/02 06:53:41;;;;;;;13.13;10.50;;;;;;;45.97;23.19;99795.58;1679184;84;21142;-60
2021/08/02 06:56:08;;;;;;;10.90;9.80;;;;;;;45.84;22.71;99800.45;1679020;84;21133;-62
2021/08/02 06:58:34;;;;;;;11.75;10.23;;;;;;;45.89;22.46;99792.86;1680150;84;21087;-60
2021/08/02 07:01:01;;;;;;;11.90;10.78;;;;;;;45.93;22.78;99792.16;1679774;84;21060;-61
2021/08/02 07:03:28;;;;;;;13.78;10.90;;;;;;;46.01;22.85;99799.77;1652504;84;21112;-61
2021/08/02 07:05:54;;;;;;;12.95;9.53;;;;;;;46.21;22.69;99791.95;1643532;86;21019;-61
2021/08/02 07:08:21;;;;;;;11.08;10.18;;;;;;;46.33;21.97;99793.34;1643498;87;21182;-61
2021/08/02 07:10:48;;;;;;;10.48;9.38;;;;;;;46.36;22.02;99792.31;1644592;87;21051;-60
2021/08/02 07:13:15;;;;;;;10.85;9.53;;;;;;;46.37;21.72;99787.73;1642265;87;21075;-61
2021/08/02 07:15:44;;;;;;;12.93;9.73;;;;;;;46.27;21.59;99801.23;1644545;86;21237;-61
2021/08/02 07:18:11;;;;;;;10.82;9.83;;;;;;;46.12;22.00;99797.33;1643180;86;21778;-60
2021/08/02 07:20:38;;;;;;;12.05;9.83;;;;;;;45.71;21.98;99792.70;1643401;87;21540;-60
2021/08/02 07:23:06;;;;;;;10.98;9.75;;;;;;;45.36;22.13;99795.77;1643729;86;20959;-60
2021/08/02 07:25:33;;;;;;;12.85;10.43;;;;;;;45.24;22.38;99794.49;1643811;86;21610;-60
2021/08/02 07:28:00;;;;;;;10.05;8.85;;;;;;;45.03;23.10;99790.84;1642067;86;21135;-61
2021/08/02 07:30:27;;;;;;;9.73;8.75;;;;;;;44.97;22.92;99791.18;1644250;87;21470;-61
2021/08/02 07:32:53;;;;;;;8.88;7.97;;;;;;;45.20;22.37;99792.43;1642687;87;21185;-60
2021/08/02 07:35:20;;;;;;;8.10;7.40;;;;;;;45.46;22.03;99789.22;1643787;87;21541;-60
2021/08/02 07:37:47;;;;;;;9.73;8.48;;;;;;;45.69;21.39;99793.75;1644192;86;21517;-61
2021/08/02 07:40:13;;;;;;;8.70;7.80;;;;;;;45.99;21.48;99785.64;1640921;85;21143;-60
2021/08/02 07:42:40;;;;;;;10.50;9.50;;;;;;;46.28;20.97;99787.63;1643167;85;21061;-61
2021/08/02 07:45:08;;;;;;;9.28;8.38;;;;;;;46.43;21.30;99783.84;1637024;86;21082;-61
2021/08/02 07:47:35;;;;;;;8.45;7.70;;;;;;;46.49;20.84;99783.46;1625409;87;21031;-61
2021/08/02 07:50:02;;;;;;;7.97;7.30;;;;;;;46.63;19.84;99778.13;1637337;87;21047;-61
2021/08/02 07:52:31;;;;;;;8.75;7.95;;;;;;;46.46;19.98;99779.59;1638480;87;21197;-61
2021/08/02 07:55:00;;;;;;;9.35;8.43;;;;;;;46.01;20.55;99780.48;1637907;86;21029;-61
2021/08/02 07:57:28;;;;;;;17.02;8.73;;;;;;;45.94;20.62;99786.20;1641058;87;21022;-60
2021/08/02 07:59:56;;;;;;;15.77;7.63;;;;;;;45.76;21.23;99788.64;1645151;86;21520;-61
2021/08/02 08:02:22;;;;;;;8.43;6.70;;;;;;;45.67;20.71;99784.38;1643967;85;21360;-60
2021/08/02 08:04:49;;;;;;;7.37;6.78;;;;;;;45.80;20.23;99783.80;1606929;87;21385;-60
2021/08/02 08:07:17;;;;;;;7.90;7.12;;;;;;;45.94;20.02;99790.94;1601014;87;21104;-60
2021/08/02 08:09:44;;;;;;;7.25;6.55;;;;;;;45.66;20.00;99786.36;1604347;87;21691;-60
2021/08/02 08:12:11;;;;;;;8.70;7.05;;;;;;;45.35;20.08;99793.63;1603801;87;21043;-60
2021/08/02 08:14:37;;;;;;;7.50;6.75;;;;;;;45.20;20.11;99790.26;1605116;86;21058;-61
2021/08/02 08:17:04;;;;;;;6.42;5.78;;;;;;;45.29;20.28;99782.19;1604196;87;21876;-60
2021/08/02 08:19:32;;;;;;;6.58;5.80;;;;;;;45.42;20.18;99780.86;1603537;87;21240;-60
2021/08/02 08:21:59;;;;;;;6.47;5.80;;;;;;;45.34;20.44;99784.40;1644756;86;21412;-60
2021/08/02 08:24:26;;;;;;;7.80;6.30;;;;;;;45.29;20.60;99783.56;1642570;86;21063;-61
2021/08/02 08:26:52;;;;;;;8.18;6.67;;;;;;;45.23;20.24;99783.29;1643895;86;21393;-60
2021/08/02 08:29:19;;;;;;;8.68;6.67;;;;;;;45.03;20.29;99771.59;1645948;86;21159;-60
2021/08/02 08:31:46;;;;;;;8.18;6.28;;;;;;;44.88;20.45;99771.93;1643949;86;21083;-60
2021/08/02 08:34:12;;;;;;;7.83;5.85;;;;;;;44.72;20.39;99772.53;1642974;86;21315;-60
2021/08/02 08:36:39;;;;;;;8.45;6.40;;;;;;;44.39;20.49;99775.19;1603126;87;21056;-60
2021/08/02 08:39:05;;;;;;;9.63;5.70;;;;;;;44.10;20.99;99774.39;1644225;86;22019;-60
2021/08/02 08:41:32;;;;;;;8.88;5.22;;;;;;;44.05;21.39;99773.50;1645462;86;21123;-59
2021/08/02 08:43:58;;;;;;;6.50;5.20;;;;;;;44.16;21.22;99776.03;1643128;86;20969;-60
2021/08/02 08:46:25;;;;;;;5.80;4.95;;;;;;;44.09;21.21;99770.08;1645288;86;21101;-60
2021/08/02 08:48:51;;;;;;;6.22;5.62;;;;;;;43.92;20.42;99769.25;1644535;86;21036;-60
2021/08/02 08:51:19;;;;;;;8.08;5.25;;;;;;;43.80;20.81;99774.58;1644857;86;21320;-60
2021/08/02 08:53:46;;;;;;;8.13;5.78;;;;;;;43.93;20.69;99774.91;1642902;86;21833;-60
2021/08/02 08:56:16;;;;;;;8.25;5.75;;;;;;;44.09;20.20;99763.81;1644726;86;21579;-59
2021/08/02 08:58:44;;;;;;;6.55;5.25;;;;;;;43.94;20.46;99771.56;1641821;86;21711;-59
2021/08/02 09:01:11;;;;;;;8.63;6.12;;;;;;;43.67;20.34;99770.28;1643580;86;21024;-62
2021/08/02 09:03:38;;;;;;;9.25;5.97;;;;;;;43.56;20.74;99771.84;1644701;86;21683;-59
2021/08/02 09:06:07;;;;;;;6.22;5.60;;;;;;;43.51;20.71;99768.23;1642682;86;21115;-59
2021/08/02 09:08:41;;;;;;;9.08;5.80;;;;;;;43.50;21.06;99772.77;1644259;86;21541;-59
2021/08/02 09:11:08;;;;;;;11.30;6.10;;;;;;;43.53;21.31;99763.11;1641614;87;21434;-59
2021/08/02 09:13:36;;;;;;;7.75;5.90;;;;;;;43.57;21.00;99765.19;1644320;86;20960;-59
2021/08/02 09:16:17;;;;;;;6.13;5.53;;;;;;;43.58;21.30;99763.98;1643017;86;21099;-59
2021/08/02 09:18:59;;;;;;;;;;;;;;;43.58;21.77;99763.98;1647779;86;21220;-60
2021/08/02 09:21:27;;;;;;;7.60;5.65;;;;;;;43.87;21.29;99760.72;1644197;86;20119;-59
2021/08/02 09:23:57;;;;;;;7.58;6.08;;;;;;;44.21;20.89;99760.41;1644067;86;21012;-59
2021/08/02 09:26:31;;;;;;;9.13;6.25;;;;;;;44.40;20.66;99754.73;1644030;86;21745;-59
2021/08/02 09:28:59;;;;;;;7.92;5.70;;;;;;;44.53;20.93;99751.52;1644817;86;20973;-59
2021/08/02 09:31:37;;;;;;;8.00;5.55;;;;;;;44.76;20.21;99747.09;1641072;86;21162;-59
2021/08/02 09:34:06;;;;;;;12.33;6.60;;;;;;;44.85;20.33;99750.02;1642741;86;21032;-59
2021/08/02 09:36:49;;;;;;;8.43;6.07;;;;;;;44.72;20.42;99743.66;1644300;86;21031;-59
2021/08/02 09:39:15;;;;;;;9.73;5.97;;;;;;;44.69;20.15;99743.14;1643381;86;22134;-59
2021/08/02 09:41:43;;;;;;;9.83;7.05;;;;;;;44.68;20.07;99730.60;1639139;86;21080;-58
2021/08/02 09:44:22;;;;;;;6.55;5.83;;;;;;;44.53;20.44;99739.75;1644406;86;21168;-59
2021/08/02 09:47:01;;;;;;;6.12;5.50;;;;;;;44.47;20.48;99729.08;1602578;87;21062;-59
2021/08/02 09:49:47;;;;;;;8.60;6.03;;;;;;;44.38;20.36;99725.55;1641536;86;21657;-59
2021/08/02 09:52:15;;;;;;;7.00;5.83;;;;;;;44.35;20.20;99726.40;1643324;86;21015;-59
2021/08/02 09:54:42;;;;;;;9.83;6.57;;;;;;;44.27;20.06;99725.78;1643574;86;21126;-60
2021/08/02 09:57:09;;;;;;;7.72;6.37;;;;;;;44.15;20.32;99724.44;1641799;86;21839;-59
2021/08/02 09:59:40;;;;;;;7.75;6.20;;;;;;;43.90;20.21;99722.80;1642809;86;21637;-59
2021/08/02 10:02:05;;;;;;;8.73;6.03;;;;;;;43.82;20.62;99721.38;1643809;85;21597;-59
2021/08/02 10:04:31;;;;;;;6.47;5.70;;;;;;;43.70;21.15;99718.06;1672935;83;21068;-60
2021/08/02 10:06:59;;;;;;;7.03;6.33;;;;;;;43.55;21.27;99714.64;1684608;83;21484;-59
2021/08/02 10:09:29;;;;;;;7.15;6.47;;;;;;;43.42;21.26;99708.98;1682215;83;21134;-60
2021/08/02 10:11:57;;;;;;;6.40;5.80;;;;;;;43.38;21.20;99707.67;1681432;83;21017;-59
2021/08/02 10:14:29;;;;;;;11.08;6.80;;;;;;;43.27;21.46;99715.92;1681621;83;21013;-60
2021/08/02 10:17:05;;;;;;;7.30;6.42;;;;;;;43.20;21.32;99713.47;1679839;84;21036;-59
2021/08/02 10:19:47;;;;;;;7.90;6.70;;;;;;;43.07;21.41;99713.88;1678515;83;21120;-59
2021/08/02 10:22:14;;;;;;;8.83;7.10;;;;;;;42.88;20.47;99711.83;1681036;83;21149;-60
2021/08/02 10:24:52;;;;;;;46.68;10.58;;;;;;;42.56;21.28;99711.70;1682471;83;21071;-59
2021/08/02 10:27:31;;;;;;;7.22;6.33;;;;;;;42.56;22.01;99707.59;1676708;83;21622;-60
2021/08/02 10:29:57;;;;;;;8.45;6.80;;;;;;;42.62;20.88;99700.47;1680200;83;20937;-61
2021/08/02 10:32:27;;;;;;;8.60;6.25;;;;;;;42.61;20.40;99702.23;1678618;83;21040;-61
2021/08/02 10:34:55;;;;;;;;;;;;;;;42.62;20.45;99707.31;1678986;83;21185;-61
2021/08/02 10:37:36;;;;;;;10.00;6.83;;;;;;;42.42;20.95;99700.94;1672334;83;20168;-61
2021/08/02 10:40:08;;;;;;;6.92;5.87;;;;;;;42.14;21.03;99702.86;1670623;83;21531;-63
2021/08/02 10:42:49;;;;;;;7.95;5.90;;;;;;;41.97;20.63;99695.64;1671557;83;21148;-61
2021/08/02 10:45:28;;;;;;;7.08;6.37;;;;;;;41.94;21.02;99708.77;1614721;86;21571;-62
2021/08/02 10:47:54;;;;;;;7.87;5.80;;;;;;;41.94;20.31;99686.88;1597557;86;22826;-61
2021/08/02 10:50:27;;;;;;;9.90;6.33;;;;;;;42.03;20.30;99689.30;1639855;85;21123;-59
2021/08/02 10:52:54;;;;;;;8.73;6.58;;;;;;;42.16;19.65;99694.23;1619613;86;21062;-59
2021/08/02 10:55:21;;;;;;;8.55;6.28;;;;;;;42.23;19.33;99687.28;1618473;86;21112;-59
2021/08/02 10:58:00;;;;;;;6.62;5.92;;;;;;;42.21;19.20;99695.92;1640067;86;20967;-59
2021/08/02 11:00:27;;;;;;;6.17;5.58;;;;;;;41.99;18.91;99691.31;1641433;85;21820;-60
2021/08/02 11:02:56;;;;;;;7.35;6.65;;;;;;;41.79;19.30;99682.94;1640692;86;21010;-60
2021/08/02 11:05:23;;;;;;;8.18;6.67;;;;;;;41.76;19.32;99689.22;1641171;86;21007;-59
2021/08/02 11:07:50;;;;;;;8.65;6.45;;;;;;;41.65;19.63;99699.52;1641480;86;20980;-60
2021/08/02 11:10:16;;;;;;;10.93;7.10;;;;;;;41.45;19.56;99686.25;1639936;86;21052;-60
2021/08/02 11:12:47;;;;;;;7.83;7.03;;;;;;;41.39;20.39;99690.58;1641870;86;21156;-60
2021/08/02 11:15:15;;;;;;;8.80;7.53;;;;;;;41.35;20.45;99687.10;1674067;85;21635;-60
2021/08/02 11:17:53;;;;;;;13.48;8.88;;;;;;;41.25;20.42;99689.52;1676285;84;20964;-61
2021/08/02 11:20:24;;;;;;;8.28;7.47;;;;;;;41.15;20.70;99689.64;1677005;84;21115;-60
2021/08/02 11:22:58;;;;;;;9.58;8.43;;;;;;;41.20;20.84;99685.86;1673995;84;21074;-60
2021/08/02 11:25:31;;;;;;;10.32;7.97;;;;;;;41.37;20.78;99690.19;1671340;84;22274;-60
2021/08/02 11:27:59;;;;;;;9.35;7.50;;;;;;;41.40;20.90;99682.55;1641195;86;21468;-60
2021/08/02 11:30:26;;;;;;;9.75;7.62;;;;;;;41.29;21.49;99676.58;1675726;83;21078;-60
2021/08/02 11:32:54;;;;;;;10.15;7.30;;;;;;;41.33;21.35;99684.75;1679312;84;20964;-60
2021/08/02 11:35:33;;;;;;;7.80;7.00;;;;;;;41.38;20.23;99676.72;1680733;84;21019;-60